Time;durP1;ratioP1;P1;durP2;ratioP2;P2;SDS_P1;SDS_P2;PMS_P1;PMS_P2;Temp;Humidity;BMP_temperature;BMP_pressure;BME280_temperature;BME280_humidity;BME280_pressure;Samples;Min_cycle;Max_cycle;Signal;HPM_P1;HPM_P2
2024/02/07 00:00:32;;;;;;;3.75;0.30;;;3.70;98.20;;;;;;5028257;28;20112;-69
2024/02/07 00:02:58;;;;;;;0.20;0.20;;;3.70;98.30;;;;;;5032141;28;20021;-69
2024/02/07 00:05:23;;;;;;;1.10;0.82;;;3.70;98.20;;;;;;5034089;28;20418;-69
2024/02/07 00:07:49;;;;;;;2.28;0.28;;;3.60;98.20;;;;;;5035375;28;20041;-69
2024/02/07 00:10:15;;;;;;;3.92;0.43;;;3.60;98.40;;;;;;5022096;28;20029;-69
2024/02/07 00:12:41;;;;;;;1.30;0.30;;;3.60;98.50;;;;;;5031097;28;20355;-69
2024/02/07 00:15:07;;;;;;;1.45;0.65;;;3.60;98.50;;;;;;5028563;28;20049;-69
2024/02/07 00:17:32;;;;;;;0.38;0.25;;;3.70;98.50;;;;;;5030791;28;20317;-69
2024/02/07 00:19:58;;;;;;;0.82;0.40;;;3.60;98.50;;;;;;5033797;28;20029;-69
2024/02/07 00:22:23;;;;;;;0.30;0.20;;;3.70;98.40;;;;;;5031052;28;20121;-69
2024/02/07 00:24:49;;;;;;;0.40;0.28;;;3.60;98.50;;;;;;5029052;28;20022;-69
2024/02/07 00:27:14;;;;;;;3.45;0.50;;;3.70;98.60;;;;;;5010903;28;20088;-69
2024/02/07 00:29:40;;;;;;;2.08;0.20;;;3.70;98.60;;;;;;5029534;28;20029;-69
2024/02/07 00:32:06;;;;;;;0.60;0.38;;;3.70;98.70;;;;;;5025037;28;20045;-69
2024/02/07 00:34:33;;;;;;;1.48;0.30;;;3.70;98.70;;;;;;5018459;28;20052;-69
2024/02/07 00:36:58;;;;;;;3.40;0.60;;;3.70;98.50;;;;;;5016218;28;20124;-69
2024/02/07 00:39:24;;;;;;;3.85;0.57;;;3.70;98.50;;;;;;5024464;28;20240;-70
2024/02/07 00:41:49;;;;;;;1.02;0.40;;;3.70;98.40;;;;;;5031396;28;20105;-69
2024/02/07 00:44:15;;;;;;;3.33;0.75;;;3.80;98.40;;;;;;5030008;28;20048;-69
2024/02/07 00:46:40;;;;;;;1.92;0.40;;;3.80;98.30;;;;;;5028848;28;20044;-69
2024/02/07 00:49:12;;;;;;;1.48;0.40;;;3.80;98.30;;;;;;5028651;28;20030;-69
2024/02/07 00:51:38;;;;;;;0.28;0.28;;;3.80;98.30;;;;;;5029810;28;20093;-69
2024/02/07 00:54:03;;;;;;;0.13;0.13;;;3.80;98.30;;;;;;5028414;28;20174;-69
2024/02/07 00:56:30;;;;;;;1.95;0.30;;;3.80;98.40;;;;;;5024740;28;20141;-69
2024/02/07 00:58:55;;;;;;;1.33;0.68;;;3.80;98.40;;;;;;5022527;28;20083;-69
2024/02/07 01:01:20;;;;;;;1.85;0.50;;;3.80;98.40;;;;;;5025827;28;20033;-69
2024/02/07 01:03:46;;;;;;;0.82;0.65;;;3.90;98.50;;;;;;5024046;28;20081;-69
2024/02/07 01:06:12;;;;;;;0.30;0.22;;;3.80;98.40;;;;;;5031395;28;20459;-69
2024/02/07 01:08:37;;;;;;;0.30;0.30;;;3.90;98.40;;;;;;5028746;28;20052;-69
2024/02/07 01:11:03;;;;;;;3.53;0.65;;;3.80;98.50;;;;;;5030590;28;20041;-69
2024/02/07 01:13:29;;;;;;;2.67;0.88;;;3.90;98.50;;;;;;5029406;28;20097;-69
2024/02/07 01:15:54;;;;;;;2.42;1.45;;;3.90;98.30;;;;;;5028612;28;20053;-69
2024/02/07 01:18:20;;;;;;;2.65;0.50;;;3.90;98.20;;;;;;5011865;28;20115;-69
2024/02/07 01:20:45;;;;;;;0.22;0.22;;;3.90;98.30;;;;;;5030484;28;20447;-69
2024/02/07 01:23:11;;;;;;;0.57;0.30;;;3.90;98.40;;;;;;5027525;28;20030;-69
2024/02/07 01:25:36;;;;;;;3.53;0.30;;;3.90;98.30;;;;;;5024783;28;20392;-69
2024/02/07 01:28:02;;;;;;;1.58;0.40;;;3.90;98.30;;;;;;5031967;28;20134;-69
2024/02/07 01:30:27;;;;;;;0.45;0.30;;;3.90;98.20;;;;;;5031834;28;20087;-69
2024/02/07 01:32:53;;;;;;;1.25;0.50;;;3.90;98.30;;;;;;5025095;28;20044;-69
2024/02/07 01:35:19;;;;;;;0.30;0.30;;;3.90;98.40;;;;;;5022770;28;20048;-69
2024/02/07 01:37:46;;;;;;;0.98;0.20;;;4.00;98.30;;;;;;5011498;28;20500;-69
2024/02/07 01:40:12;;;;;;;0.30;0.30;;;4.00;98.30;;;;;;5022733;28;20588;-69
2024/02/07 01:42:38;;;;;;;1.83;0.50;;;4.00;98.10;;;;;;5029624;28;20032;-69
2024/02/07 01:45:30;;;;;;;1.10;0.52;;;4.00;98.20;;;;;;5033258;28;20041;-69
2024/02/07 01:47:57;;;;;;;1.77;0.35;;;4.00;98.10;;;;;;5013391;28;20037;-69
2024/02/07 01:50:23;;;;;;;0.28;0.28;;;4.00;98.10;;;;;;5030188;28;20044;-69
2024/02/07 01:52:52;;;;;;;0.95;0.80;;;4.00;98.10;;;;;;5028757;28;20021;-69
2024/02/07 01:55:18;;;;;;;1.20;0.40;;;4.00;98.10;;;;;;5022940;28;20048;-69
2024/02/07 01:57:44;;;;;;;0.40;0.40;;;4.10;98.10;;;;;;5024328;28;20037;-69
2024/02/07 02:00:11;;;;;;;0.30;0.30;;;4.00;98.10;;;;;;5030197;28;20049;-69
2024/02/07 02:02:37;;;;;;;0.43;0.40;;;4.10;97.90;;;;;;5028523;28;20083;-69
2024/02/07 02:05:03;;;;;;;0.13;0.13;;;4.00;98.00;;;;;;5027464;28;20072;-69
2024/02/07 02:07:29;;;;;;;1.90;0.28;;;4.00;98.00;;;;;;5025687;28;20068;-69
2024/02/07 02:09:54;;;;;;;1.00;0.45;;;4.00;98.00;;;;;;5030572;28;20204;-69
2024/02/07 02:12:21;;;;;;;0.30;0.30;;;4.00;98.00;;;;;;5019083;28;20041;-69
2024/02/07 02:14:46;;;;;;;2.50;0.30;;;4.00;97.90;;;;;;5019539;28;20068;-69
2024/02/07 02:17:13;;;;;;;2.28;0.40;;;4.00;98.00;;;;;;5026456;28;20372;-69
2024/02/07 02:19:38;;;;;;;0.57;0.55;;;4.00;97.90;;;;;;5026333;28;20048;-69
2024/02/07 02:22:48;;;;;;;4.53;1.00;;;4.00;97.80;;;;;;5023641;28;20449;-69
2024/02/07 02:25:38;;;;;;;1.42;0.60;;;4.10;97.60;;;;;;5022078;28;20056;-69
2024/02/07 02:28:21;;;;;;;0.98;0.38;;;4.10;97.60;;;;;;5017540;28;20048;-69
2024/02/07 02:30:52;;;;;;;3.25;0.45;;;4.10;97.90;;;;;;5015886;28;20156;-69
2024/02/07 02:33:20;;;;;;;3.08;0.45;;;4.10;97.80;;;;;;5027073;28;20100;-69
2024/02/07 02:35:47;;;;;;;2.92;0.50;;;4.10;97.70;;;;;;5021464;28;20066;-69
2024/02/07 02:38:14;;;;;;;0.63;0.50;;;4.10;97.70;;;;;;5028957;28;20110;-69
2024/02/07 02:40:39;;;;;;;0.95;0.70;;;4.10;97.60;;;;;;5028265;28;20029;-69
2024/02/07 02:43:05;;;;;;;2.75;0.60;;;4.10;97.40;;;;;;5031058;28;20506;-69
2024/02/07 02:45:31;;;;;;;5.03;0.63;;;4.10;97.50;;;;;;5035751;28;20032;-69
2024/02/07 02:47:58;;;;;;;3.63;0.70;;;4.10;97.50;;;;;;5024815;28;20095;-69
2024/02/07 02:50:26;;;;;;;1.02;0.55;;;4.10;97.60;;;;;;5032150;28;20026;-69
2024/02/07 02:52:51;;;;;;;0.43;0.20;;;4.10;97.60;;;;;;5035176;28;20033;-69
2024/02/07 02:55:17;;;;;;;2.65;0.63;;;4.10;97.30;;;;;;5027383;28;20041;-70
2024/02/07 02:57:45;;;;;;;3.20;0.45;;;4.10;97.40;;;;;;5028261;28;20620;-69
2024/02/07 03:00:14;;;;;;;1.95;0.52;;;4.10;97.30;;;;;;5032408;28;20119;-69
2024/02/07 03:02:40;;;;;;;0.20;0.20;;;4.10;97.40;;;;;;5029016;28;20102;-69
2024/02/07 03:05:26;;;;;;;1.75;0.60;;;4.10;97.30;;;;;;5025293;28;20438;-69
2024/02/07 03:08:04;;;;;;;0.32;0.32;;;4.10;97.50;;;;;;5021221;28;20041;-69
2024/02/07 03:10:30;;;;;;;2.60;0.63;;;4.10;97.20;;;;;;5033602;28;20045;-69
2024/02/07 03:12:56;;;;;;;0.68;0.45;;;4.20;97.10;;;;;;5027228;28;20033;-69
2024/02/07 03:15:21;;;;;;;3.05;0.70;;;4.10;97.20;;;;;;5026289;28;20114;-69
2024/02/07 03:17:47;;;;;;;1.90;1.48;;;4.10;97.20;;;;;;5039105;28;20427;-69
2024/02/07 03:20:12;;;;;;;3.45;0.80;;;4.10;97.30;;;;;;5028886;28;20037;-69
2024/02/07 03:22:38;;;;;;;2.50;0.63;;;4.20;97.40;;;;;;5018822;28;20037;-69
2024/02/07 03:25:05;;;;;;;0.85;0.60;;;4.20;97.30;;;;;;5026099;28;20037;-69
2024/02/07 03:27:30;;;;;;;0.17;0.17;;;4.20;97.10;;;;;;5026190;28;20120;-69
2024/02/07 03:29:56;;;;;;;1.48;1.17;;;4.20;97.20;;;;;;5034237;28;20470;-69
2024/02/07 03:32:24;;;;;;;0.73;0.50;;;4.20;97.10;;;;;;5032863;28;20036;-69
2024/02/07 03:34:51;;;;;;;3.95;0.80;;;4.20;97.10;;;;;;5018813;28;20430;-69
2024/02/07 03:37:17;;;;;;;4.70;0.60;;;4.30;97.20;;;;;;5026929;28;20191;-69
2024/02/07 03:39:42;;;;;;;2.47;0.50;;;4.30;97.00;;;;;;5028686;28;20204;-69
2024/02/07 03:42:08;;;;;;;2.40;0.30;;;4.20;97.10;;;;;;5030360;28;20040;-69
2024/02/07 03:44:34;;;;;;;0.93;0.40;;;4.30;97.10;;;;;;5029745;28;20111;-69
2024/02/07 03:46:59;;;;;;;1.17;0.50;;;4.30;97.10;;;;;;5036217;28;20030;-69
2024/02/07 03:49:25;;;;;;;5.18;1.08;;;4.30;97.00;;;;;;5031074;28;20498;-69
2024/02/07 03:51:52;;;;;;;2.78;0.82;;;4.40;96.90;;;;;;5028727;28;20435;-69
2024/02/07 03:54:18;;;;;;;1.55;0.52;;;4.30;97.00;;;;;;5024133;28;20410;-69
2024/02/07 03:56:44;;;;;;;0.57;0.50;;;4.30;97.00;;;;;;5020571;28;20413;-69
2024/02/07 03:59:09;;;;;;;1.15;0.40;;;4.30;96.90;;;;;;5024711;28;20064;-69
2024/02/07 04:01:35;;;;;;;2.95;0.50;;;4.40;96.90;;;;;;5024547;28;20045;-69
2024/02/07 04:04:01;;;;;;;0.60;0.22;;;4.40;97.00;;;;;;5029081;28;20095;-69
2024/02/07 04:06:28;;;;;;;0.32;0.20;;;4.30;97.10;;;;;;5026273;28;20052;-69
2024/02/07 04:08:55;;;;;;;0.35;0.35;;;4.30;97.30;;;;;;5035292;28;20029;-69
2024/02/07 05:16:22;;;;;;;4.30;0.70;;;4.00;94.50;;;;;;5030961;28;20071;-69
2024/02/07 05:18:48;;;;;;;1.80;1.05;;;4.00;95.00;;;;;;5030381;28;20029;-69
2024/02/07 05:21:13;;;;;;;2.25;0.63;;;4.00;94.60;;;;;;5026176;28;20056;-69
2024/02/07 05:23:42;;;;;;;1.83;1.08;;;4.00;92.90;;;;;;5026187;28;20029;-69
2024/02/07 05:26:09;;;;;;;2.03;0.40;;;3.90;92.70;;;;;;5026952;28;20030;-69
2024/02/07 05:28:34;;;;;;;1.15;0.40;;;3.90;93.50;;;;;;5027241;28;20064;-67
2024/02/07 05:31:00;;;;;;;1.52;0.57;;;3.90;93.90;;;;;;5035061;28;20488;-68
2024/02/07 05:33:25;;;;;;;1.55;0.43;;;3.90;93.90;;;;;;5025452;28;20120;-68
2024/02/07 05:35:51;;;;;;;1.52;0.88;;;3.90;93.70;;;;;;5026535;28;20173;-68
2024/02/07 05:38:16;;;;;;;0.95;0.30;;;3.80;93.10;;;;;;5019229;28;20033;-68
2024/02/07 05:40:42;;;;;;;2.13;0.65;;;3.90;93.40;;;;;;5024496;28;20432;-68
2024/02/07 05:43:07;;;;;;;3.15;0.82;;;3.90;93.50;;;;;;5028446;28;20038;-68
2024/02/07 05:45:33;;;;;;;1.52;0.60;;;3.90;93.70;;;;;;5005478;28;20099;-68
2024/02/07 05:47:58;;;;;;;4.15;0.75;;;3.80;93.60;;;;;;5033418;28;20378;-68
2024/02/07 05:50:24;;;;;;;0.50;0.40;;;3.90;92.50;;;;;;5023077;28;20045;-68
2024/02/07 05:52:51;;;;;;;1.85;0.40;;;3.80;93.00;;;;;;5012710;28;20033;-68
2024/02/07 05:55:16;;;;;;;3.10;1.10;;;3.80;93.00;;;;;;5026759;28;20501;-68
2024/02/07 05:57:42;;;;;;;1.15;0.52;;;3.70;93.20;;;;;;5027258;28;20029;-68
2024/02/07 06:00:09;;;;;;;2.55;0.85;;;3.80;92.90;;;;;;5026765;28;20089;-68
2024/02/07 06:02:34;;;;;;;1.02;0.52;;;3.70;93.10;;;;;;5026740;28;20336;-68
2024/02/07 06:05:03;;;;;;;1.40;0.55;;;3.70;93.00;;;;;;5022961;28;20087;-68
2024/02/07 06:07:29;;;;;;;2.72;0.95;;;3.70;92.80;;;;;;5029295;28;20091;-68
2024/02/07 06:09:55;;;;;;;2.67;1.38;;;3.60;93.20;;;;;;5022766;28;20026;-68
2024/02/07 06:12:21;;;;;;;4.57;1.20;;;3.60;93.00;;;;;;5028129;28;20083;-68
2024/02/07 06:14:47;;;;;;;2.00;0.45;;;3.70;92.60;;;;;;5018664;28;20125;-68
2024/02/07 06:17:13;;;;;;;1.73;0.52;;;3.60;93.10;;;;;;5029288;28;20105;-68
2024/02/07 06:19:38;;;;;;;1.73;0.60;;;3.60;92.40;;;;;;5027648;28;20105;-68
2024/02/07 06:22:04;;;;;;;2.10;0.77;;;3.60;92.30;;;;;;5027562;28;20354;-68
2024/02/07 06:24:29;;;;;;;0.85;0.45;;;3.60;92.40;;;;;;5026511;28;20099;-68
2024/02/07 06:26:55;;;;;;;3.85;0.47;;;3.60;92.40;;;;;;5031977;28;20075;-69
2024/02/07 06:29:21;;;;;;;4.50;0.90;;;3.60;92.20;;;;;;5015408;28;20119;-68
2024/02/07 06:31:46;;;;;;;2.15;0.65;;;3.60;92.50;;;;;;5032022;28;20459;-68
2024/02/07 06:34:11;;;;;;;3.42;0.95;;;3.50;92.20;;;;;;5028413;28;20025;-68
2024/02/07 06:36:37;;;;;;;2.90;0.73;;;3.50;92.50;;;;;;5027107;28;20243;-68
2024/02/07 06:39:02;;;;;;;1.75;0.77;;;3.50;92.20;;;;;;5022917;28;20051;-69
2024/02/07 06:41:29;;;;;;;1.15;0.30;;;3.50;92.20;;;;;;5023684;28;20101;-68
2024/02/07 06:43:54;;;;;;;0.93;0.35;;;3.40;92.30;;;;;;5031923;28;20032;-69
2024/02/07 06:46:20;;;;;;;0.98;0.55;;;3.40;91.40;;;;;;5029494;28;20395;-70
2024/02/07 06:48:45;;;;;;;0.80;0.47;;;3.40;91.30;;;;;;5030006;28;20355;-69
2024/02/07 06:51:11;;;;;;;1.42;0.60;;;3.40;91.50;;;;;;5038244;28;20129;-69
2024/02/07 06:53:36;;;;;;;1.83;0.70;;;3.30;91.70;;;;;;5031021;28;20037;-69
2024/02/07 06:56:02;;;;;;;2.40;0.80;;;3.30;92.20;;;;;;5027299;28;20217;-69
2024/02/07 06:58:30;;;;;;;0.75;0.63;;;3.20;92.60;;;;;;5026303;28;20049;-68
2024/02/07 07:00:57;;;;;;;2.92;0.75;;;3.20;92.50;;;;;;5033128;28;20112;-67
2024/02/07 07:03:25;;;;;;;2.50;0.82;;;3.20;92.80;;;;;;5026824;28;20033;-67
2024/02/07 07:05:50;;;;;;;3.25;0.82;;;3.20;93.20;;;;;;5037177;28;20438;-68
2024/02/07 07:08:16;;;;;;;6.07;1.05;;;3.20;92.60;;;;;;5020442;28;20117;-67
2024/02/07 07:10:42;;;;;;;0.82;0.50;;;3.20;92.80;;;;;;5042243;28;20049;-68
2024/02/07 07:13:08;;;;;;;2.90;0.82;;;3.20;93.30;;;;;;5022216;28;20056;-66
2024/02/07 07:15:33;;;;;;;1.33;0.65;;;3.20;93.70;;;;;;5001892;28;20365;-67
2024/02/07 07:17:59;;;;;;;0.80;0.65;;;3.10;93.20;;;;;;5020856;28;20047;-67
2024/02/07 07:20:24;;;;;;;1.58;0.50;;;3.10;92.80;;;;;;5024134;28;20033;-67
2024/02/07 07:22:50;;;;;;;2.95;0.60;;;3.10;92.70;;;;;;5025418;28;20026;-67
2024/02/07 07:25:15;;;;;;;1.85;0.73;;;3.10;92.70;;;;;;5028334;28;20060;-67
2024/02/07 07:27:41;;;;;;;1.50;0.77;;;3.10;92.80;;;;;;5023456;28;20037;-67
2024/02/07 07:30:07;;;;;;;0.75;0.47;;;3.00;93.10;;;;;;5022225;28;20063;-68
2024/02/07 07:32:32;;;;;;;1.25;0.60;;;2.90;93.30;;;;;;5025335;28;20099;-66
2024/02/07 07:34:58;;;;;;;3.63;0.73;;;3.00;93.20;;;;;;5019838;28;20417;-67
2024/02/07 07:37:23;;;;;;;1.83;0.63;;;2.90;93.30;;;;;;5025424;28;20101;-66
2024/02/07 07:39:49;;;;;;;1.75;0.40;;;2.90;93.40;;;;;;5022854;28;20048;-71
2024/02/07 07:42:15;;;;;;;2.17;0.40;;;2.90;93.30;;;;;;5026255;28;20065;-69
2024/02/07 07:44:42;;;;;;;1.40;0.73;;;2.90;93.50;;;;;;5026241;28;20448;-70
2024/02/07 07:47:07;;;;;;;3.80;0.47;;;2.80;93.40;;;;;;5010634;28;20098;-72
2024/02/07 07:49:33;;;;;;;5.47;0.85;;;2.90;93.50;;;;;;5024908;28;20486;-71
2024/02/07 07:51:58;;;;;;;0.90;0.50;;;2.80;93.40;;;;;;5023696;28;20043;-68
2024/02/07 07:54:24;;;;;;;0.80;0.40;;;2.90;92.80;;;;;;5021674;28;20052;-68
2024/02/07 07:56:49;;;;;;;3.75;0.50;;;2.90;93.10;;;;;;5026093;28;20072;-68
2024/02/07 07:59:15;;;;;;;0.85;0.70;;;3.00;92.80;;;;;;5031276;28;20071;-67
2024/02/07 08:01:42;;;;;;;1.17;0.68;;;3.10;92.90;;;;;;5026445;28;20033;-68
2024/02/07 08:04:07;;;;;;;1.98;0.70;;;3.10;92.70;;;;;;5026212;28;20072;-68
2024/02/07 08:06:33;;;;;;;2.50;0.75;;;3.10;92.30;;;;;;5022776;28;20065;-68
2024/02/07 08:08:59;;;;;;;1.80;0.77;;;3.10;92.20;;;;;;5022304;28;20086;-67
2024/02/07 08:11:24;;;;;;;1.80;0.70;;;3.10;92.00;;;;;;5025772;28;20037;-68
2024/02/07 08:13:50;;;;;;;2.85;0.75;;;3.10;91.80;;;;;;5030664;28;20510;-68
2024/02/07 08:16:15;;;;;;;2.88;1.13;;;3.10;91.40;;;;;;5022573;28;20510;-69
2024/02/07 08:18:41;;;;;;;1.85;1.10;;;3.10;91.70;;;;;;5032863;28;20104;-68
2024/02/07 08:21:08;;;;;;;1.58;1.00;;;3.00;91.80;;;;;;5025225;28;20037;-68
2024/02/07 08:23:33;;;;;;;1.80;0.68;;;3.00;91.60;;;;;;5027614;28;20029;-68
2024/02/07 08:25:59;;;;;;;2.15;0.70;;;3.00;91.20;;;;;;5022710;28;20032;-68
2024/02/07 08:28:24;;;;;;;2.05;0.55;;;3.00;91.70;;;;;;5021587;28;20038;-68
2024/02/07 08:30:50;;;;;;;3.08;1.20;;;3.00;91.60;;;;;;5027573;28;20105;-69
2024/02/07 08:33:15;;;;;;;1.45;0.60;;;3.00;92.00;;;;;;5030557;28;20029;-68
2024/02/07 08:35:41;;;;;;;0.47;0.40;;;3.10;91.90;;;;;;5024011;28;20034;-68
2024/02/07 08:38:06;;;;;;;2.65;0.70;;;3.20;91.60;;;;;;5029913;28;20105;-68
2024/02/07 08:40:32;;;;;;;4.32;0.80;;;3.40;89.80;;;;;;5031381;28;20051;-69
2024/02/07 08:42:58;;;;;;;3.92;0.85;;;3.50;89.70;;;;;;5026109;28;20375;-69
2024/02/07 08:45:24;;;;;;;2.72;1.00;;;3.70;89.70;;;;;;4988502;28;20087;-69
2024/02/07 08:47:50;;;;;;;0.80;0.45;;;3.80;90.00;;;;;;5020530;28;20037;-68
2024/02/07 08:50:16;;;;;;;1.80;0.75;;;3.90;89.30;;;;;;5020782;28;20042;-67
2024/02/07 08:52:42;;;;;;;2.40;0.68;;;4.00;88.60;;;;;;5022380;28;20117;-68
2024/02/07 08:55:09;;;;;;;1.88;0.75;;;4.00;88.50;;;;;;5026292;28;20032;-69
2024/02/07 08:57:39;;;;;;;2.13;1.05;;;3.90;87.90;;;;;;5015574;28;20113;-68
2024/02/07 09:00:05;;;;;;;3.10;0.75;;;3.80;89.50;;;;;;5008225;28;20026;-69
2024/02/07 09:02:31;;;;;;;0.40;0.40;;;3.80;88.40;;;;;;5046055;28;20027;-68
2024/02/07 09:05:03;;;;;;;7.53;1.60;;;3.90;89.10;;;;;;5044262;28;20428;-69
2024/02/07 09:07:28;;;;;;;2.50;1.67;;;3.80;88.40;;;;;;5045265;28;20110;-69
2024/02/07 09:09:54;;;;;;;0.52;0.50;;;3.80;89.20;;;;;;5043197;28;20459;-68
2024/02/07 09:12:19;;;;;;;1.10;0.68;;;3.80;88.20;;;;;;5043979;28;20049;-68
2024/02/07 09:14:45;;;;;;;4.78;1.17;;;3.80;89.10;;;;;;5039432;28;20177;-68
2024/02/07 09:17:10;;;;;;;4.43;0.85;;;3.80;89.30;;;;;;5038864;28;20042;-68
2024/02/07 09:19:36;;;;;;;1.60;0.70;;;3.80;88.20;;;;;;5026971;28;20190;-68
2024/02/07 09:22:01;;;;;;;1.42;0.40;;;3.80;88.80;;;;;;5040169;28;20116;-68
2024/02/07 09:24:27;;;;;;;8.65;1.02;;;3.90;88.60;;;;;;5048816;28;20086;-68
2024/02/07 09:26:53;;;;;;;4.65;0.70;;;3.90;89.00;;;;;;5040972;28;20037;-70
2024/02/07 09:29:19;;;;;;;1.85;0.80;;;4.00;88.60;;;;;;5046835;28;20123;-68
2024/02/07 09:31:44;;;;;;;1.42;0.65;;;4.00;88.50;;;;;;5045691;28;20128;-69
2024/02/07 09:34:10;;;;;;;1.30;0.63;;;4.00;88.50;;;;;;5045336;28;20556;-68
2024/02/07 09:36:38;;;;;;;2.30;0.63;;;4.10;89.20;;;;;;5045722;28;20037;-68
2024/02/07 09:39:04;;;;;;;3.78;0.82;;;4.10;88.90;;;;;;5051048;28;20024;-68
2024/02/07 09:41:31;;;;;;;2.90;0.50;;;4.10;89.10;;;;;;5044046;28;20048;-69
2024/02/07 09:43:57;;;;;;;2.67;0.75;;;4.10;88.30;;;;;;5046973;28;20034;-68
2024/02/07 09:46:26;;;;;;;1.42;0.70;;;4.10;89.00;;;;;;5043623;28;20033;-71
2024/02/07 09:48:54;;;;;;;0.93;0.60;;;4.20;89.00;;;;;;5043296;28;20086;-68
2024/02/07 09:51:21;;;;;;;2.80;0.68;;;4.20;88.60;;;;;;5042158;28;20111;-68
2024/02/07 09:53:47;;;;;;;1.45;0.68;;;4.20;88.30;;;;;;5049831;28;20037;-69
2024/02/07 09:56:13;;;;;;;1.23;0.65;;;4.20;87.50;;;;;;5042507;28;20025;-71
2024/02/07 09:58:42;;;;;;;1.20;0.60;;;4.20;87.90;;;;;;5052298;28;20029;-75
2024/02/07 10:01:09;;;;;;;2.60;0.77;;;4.30;88.70;;;;;;5050467;28;20056;-70
2024/02/07 10:03:39;;;;;;;0.98;0.50;;;4.50;88.30;;;;;;5049974;28;20048;-70
2024/02/07 10:06:06;;;;;;;1.40;1.15;;;4.40;87.20;;;;;;5046423;28;20104;-70
2024/02/07 10:08:32;;;;;;;1.02;0.57;;;4.60;87.00;;;;;;5054296;28;20041;-70
2024/02/07 10:11:00;;;;;;;3.85;0.47;;;4.60;86.80;;;;;;5048024;28;20033;-70
2024/02/07 10:13:26;;;;;;;2.15;0.60;;;4.60;86.60;;;;;;5055309;28;20075;-71
2024/02/07 10:15:52;;;;;;;2.15;0.68;;;4.60;87.40;;;;;;5061592;28;20092;-70
2024/02/07 10:18:17;;;;;;;2.80;0.80;;;4.50;85.30;;;;;;5053027;28;20103;-71
2024/02/07 10:20:53;;;;;;;2.92;0.50;;;4.60;86.50;;;;;;5047057;28;20072;-71
2024/02/07 10:23:19;;;;;;;3.70;0.50;;;4.60;85.20;;;;;;5055440;28;20094;-70
2024/02/07 10:25:51;;;;;;;5.38;0.75;;;4.60;85.20;;;;;;5044340;28;20040;-70
2024/02/07 10:28:17;;;;;;;3.25;0.30;;;4.60;85.20;;;;;;5044312;28;20348;-70
2024/02/07 10:30:43;;;;;;;3.70;0.65;;;4.70;84.20;;;;;;5048723;28;20102;-68
2024/02/07 10:33:08;;;;;;;2.42;0.40;;;4.80;85.70;;;;;;5051659;28;20049;-68
2024/02/07 10:35:34;;;;;;;2.83;0.82;;;4.80;84.70;;;;;;5046297;28;20447;-69
2024/02/07 10:37:59;;;;;;;1.02;0.70;;;4.70;84.10;;;;;;5054490;28;20044;-69
2024/02/07 10:40:29;;;;;;;1.40;0.60;;;4.90;85.70;;;;;;5054228;28;20029;-68
2024/02/07 10:42:56;;;;;;;0.47;0.30;;;5.00;85.40;;;;;;5047685;28;20101;-69
2024/02/07 10:45:22;;;;;;;1.73;1.08;;;5.10;84.30;;;;;;5053645;28;20093;-69
2024/02/07 10:47:48;;;;;;;1.20;0.40;;;5.10;83.70;;;;;;5053779;28;20044;-69
2024/02/07 10:50:16;;;;;;;0.73;0.50;;;5.00;82.50;;;;;;5050737;28;20108;-69
2024/02/07 10:52:42;;;;;;;0.30;0.20;;;5.00;83.60;;;;;;5042474;28;20040;-68
2024/02/07 10:55:10;;;;;;;1.20;0.40;;;5.10;83.70;;;;;;5051327;28;20065;-69
2024/02/07 10:57:40;;;;;;;6.63;1.00;;;5.10;83.40;;;;;;5056619;28;20033;-69
2024/02/07 11:00:08;;;;;;;2.30;0.73;;;5.20;83.50;;;;;;5058508;28;20126;-68
2024/02/07 11:02:33;;;;;;;4.43;0.60;;;5.00;82.00;;;;;;5052077;28;20068;-69
2024/02/07 11:05:00;;;;;;;1.77;0.55;;;5.00;82.50;;;;;;5046412;28;20110;-70
2024/02/07 11:07:26;;;;;;;0.60;0.30;;;5.10;82.20;;;;;;5047451;28;20088;-68
2024/02/07 11:09:53;;;;;;;0.82;0.43;;;5.00;81.60;;;;;;5054715;28;20059;-68
2024/02/07 11:12:19;;;;;;;3.60;0.95;;;5.10;81.80;;;;;;5050872;28;20131;-70
2024/02/07 11:14:46;;;;;;;3.22;0.90;;;5.10;80.30;;;;;;5051734;28;20132;-69
2024/02/07 11:17:15;;;;;;;2.08;0.65;;;5.10;82.30;;;;;;5047821;28;20493;-69
2024/02/07 11:19:42;;;;;;;2.85;0.50;;;5.20;81.30;;;;;;5049844;28;20090;-69
2024/02/07 11:22:27;;;;;;;3.40;0.70;;;5.20;81.00;;;;;;5044003;28;20037;-69
2024/02/07 11:24:55;;;;;;;2.42;0.60;;;5.10;80.10;;;;;;5051087;28;20397;-69
2024/02/07 11:27:21;;;;;;;1.70;0.85;;;5.20;81.10;;;;;;5048654;28;20069;-68
2024/02/07 11:29:47;;;;;;;1.52;0.88;;;5.10;80.30;;;;;;5052985;28;20073;-70
2024/02/07 11:32:13;;;;;;;1.27;0.65;;;5.10;80.30;;;;;;5049782;28;20040;-69
2024/02/07 11:34:40;;;;;;;5.32;0.75;;;5.10;79.30;;;;;;5041489;28;20032;-68
2024/02/07 11:37:08;;;;;;;0.25;0.25;;;5.10;79.10;;;;;;5052069;28;20040;-68
2024/02/07 11:39:42;;;;;;;0.50;0.50;;;5.10;78.90;;;;;;5047789;28;20089;-69
2024/02/07 11:42:14;;;;;;;1.23;0.47;;;5.20;80.40;;;;;;5049766;28;20141;-69
2024/02/07 11:44:55;;;;;;;2.13;0.75;;;5.30;79.50;;;;;;5051586;28;20098;-68
2024/02/07 11:47:30;;;;;;;0.50;0.40;;;5.30;79.40;;;;;;5047929;28;20559;-69
2024/02/07 11:50:04;;;;;;;1.35;0.30;;;5.30;77.40;;;;;;5047286;28;20051;-68
2024/02/07 11:52:35;;;;;;;1.08;0.60;;;5.20;78.30;;;;;;5048073;28;20032;-69
2024/02/07 11:55:07;;;;;;;1.45;0.70;;;5.30;78.30;;;;;;5045555;28;20028;-68
2024/02/07 11:57:33;;;;;;;0.70;0.40;;;5.40;78.20;;;;;;5044798;28;20037;-69
2024/02/07 12:00:08;;;;;;;1.40;0.65;;;5.30;77.60;;;;;;5046796;28;20056;-68
2024/02/07 12:02:35;;;;;;;2.50;0.60;;;5.40;78.90;;;;;;5033816;28;20048;-68
2024/02/07 12:05:02;;;;;;;2.05;0.43;;;5.50;78.30;;;;;;5044826;28;20036;-69
2024/02/07 12:07:29;;;;;;;2.20;0.50;;;5.30;76.70;;;;;;5046899;28;20388;-69
2024/02/07 12:09:55;;;;;;;3.83;0.35;;;5.30;77.80;;;;;;5046621;28;20533;-69
2024/02/07 12:12:21;;;;;;;2.97;0.85;;;5.20;76.70;;;;;;5052744;28;20075;-68
2024/02/07 12:14:48;;;;;;;1.10;0.38;;;5.30;77.70;;;;;;5049421;28;20501;-68
2024/02/07 12:17:14;;;;;;;3.25;0.77;;;5.20;78.20;;;;;;5047388;28;20449;-68
2024/02/07 12:19:44;;;;;;;0.82;0.50;;;5.30;78.20;;;;;;5046626;28;20089;-69
2024/02/07 12:22:16;;;;;;;3.60;1.08;;;5.20;76.40;;;;;;5045940;28;20478;-68
2024/02/07 12:24:42;;;;;;;0.45;0.40;;;5.10;77.00;;;;;;5045430;28;20087;-68
2024/02/07 12:27:18;;;;;;;0.88;0.55;;;5.20;77.60;;;;;;5046088;28;20383;-68
2024/02/07 12:29:57;;;;;;;1.65;0.60;;;5.30;78.30;;;;;;5041953;28;20052;-69
2024/02/07 12:32:24;;;;;;;2.17;0.50;;;5.30;77.60;;;;;;5042725;28;20055;-68
2024/02/07 12:34:50;;;;;;;1.70;0.82;;;5.30;77.40;;;;;;5042471;28;20057;-69
2024/02/07 12:37:17;;;;;;;4.45;0.88;;;5.20;77.20;;;;;;5046709;28;20319;-69
2024/02/07 12:39:47;;;;;;;2.30;0.40;;;5.20;76.70;;;;;;5054090;28;20044;-68
2024/02/07 12:42:21;;;;;;;2.88;0.93;;;5.20;76.90;;;;;;5028276;28;20117;-68
2024/02/07 12:44:50;;;;;;;2.70;0.70;;;5.30;76.90;;;;;;5057420;28;20548;-68
2024/02/07 12:47:17;;;;;;;1.48;0.80;;;5.30;77.90;;;;;;5049084;28;20421;-68
2024/02/07 12:49:43;;;;;;;0.57;0.40;;;5.50;77.60;;;;;;5046662;28;20040;-68
2024/02/07 12:52:12;;;;;;;1.67;0.50;;;5.40;80.70;;;;;;5048977;28;20029;-68
2024/02/07 12:54:38;;;;;;;1.45;0.63;;;5.30;81.30;;;;;;5020445;28;20054;-69
2024/02/07 12:57:04;;;;;;;3.38;0.57;;;5.40;82.80;;;;;;5045280;28;20033;-69
2024/02/07 12:59:37;;;;;;;0.57;0.38;;;5.30;82.70;;;;;;5046265;28;20132;-68
2024/02/07 13:02:07;;;;;;;1.08;0.63;;;5.40;83.10;;;;;;5043664;28;20124;-68
2024/02/07 13:04:33;;;;;;;2.13;0.85;;;5.60;83.20;;;;;;5047287;28;20081;-70
2024/02/07 13:06:59;;;;;;;0.85;0.52;;;5.90;83.30;;;;;;5048661;28;20045;-69
2024/02/07 13:09:28;;;;;;;2.75;0.55;;;6.10;83.50;;;;;;5054408;28;20028;-70
2024/02/07 13:11:57;;;;;;;2.67;1.00;;;6.00;81.70;;;;;;5047822;28;20059;-68
2024/02/07 13:14:23;;;;;;;3.28;0.60;;;5.90;81.40;;;;;;5047858;28;20048;-69
2024/02/07 13:16:51;;;;;;;2.15;0.75;;;6.50;80.40;;;;;;5047895;28;20064;-69
2024/02/07 13:19:17;;;;;;;3.22;0.95;;;7.10;78.80;;;;;;5054119;28;21445;-69
2024/02/07 13:21:43;;;;;;;3.58;1.30;;;7.20;76.20;;;;;;5043545;28;20112;-69
2024/02/07 13:24:16;;;;;;;1.77;0.70;;;7.80;76.70;;;;;;5045367;28;20040;-68
2024/02/07 13:26:42;;;;;;;0.63;0.38;;;8.10;75.30;;;;;;5041678;28;20021;-70
2024/02/07 13:29:11;;;;;;;3.15;0.60;;;8.70;75.80;;;;;;5046856;28;20041;-69
2024/02/07 13:31:37;;;;;;;2.45;0.45;;;8.30;71.90;;;;;;5047006;28;20058;-69
2024/02/07 13:34:04;;;;;;;1.00;0.30;;;8.30;72.60;;;;;;5042482;28;20119;-69
2024/02/07 13:36:30;;;;;;;1.83;0.45;;;7.90;71.30;;;;;;5045179;28;20120;-69
2024/02/07 13:38:56;;;;;;;1.23;0.55;;;7.70;71.40;;;;;;5046587;28;20390;-68
2024/02/07 13:41:22;;;;;;;3.25;0.50;;;7.70;73.10;;;;;;5044346;28;20129;-69
2024/02/07 13:43:47;;;;;;;2.60;0.70;;;7.30;73.40;;;;;;5040249;28;20355;-69
2024/02/07 13:46:13;;;;;;;6.55;0.80;;;7.00;74.00;;;;;;5046996;28;20037;-69
2024/02/07 13:48:38;;;;;;;2.55;0.70;;;6.40;73.50;;;;;;5050543;28;20056;-68
2024/02/07 13:51:07;;;;;;;1.02;0.40;;;6.10;73.00;;;;;;5044529;28;20068;-68
2024/02/07 13:53:32;;;;;;;0.70;0.47;;;6.00;73.50;;;;;;5045490;28;20434;-68
2024/02/07 13:55:58;;;;;;;2.90;0.47;;;6.00;74.00;;;;;;5043366;28;20029;-68
2024/02/07 13:58:26;;;;;;;5.28;1.10;;;6.00;73.60;;;;;;5045078;28;20033;-68
2024/02/07 14:00:52;;;;;;;2.00;0.57;;;6.10;73.80;;;;;;5037533;28;20040;-68